sensor_id;sensor_type;location;lat;lon;timestamp;temperature;humidity
10468;DHT22;5281;48.878;9.394;2022-08-19T00:01:40;23.40;99.90
10468;DHT22;5281;48.878;9.394;2022-08-19T00:04:09;23.40;99.90
10468;DHT22;5281;48.878;9.394;2022-08-19T00:06:37;23.50;99.90
10468;DHT22;5281;48.878;9.394;2022-08-19T00:09:08;23.50;99.90
10468;DHT22;5281;48.878;9.394;2022-08-19T00:11:35;23.50;99.90
10468;DHT22;5281;48.878;9.394;2022-08-19T00:14:04;23.50;99.90
10468;DHT22;5281;48.878;9.394;2022-08-19T00:16:31;23.50;99.90
10468;DHT22;5281;48.878;9.394;2022-08-19T00:18:58;23.50;99.90
10468;DHT22;5281;48.878;9.394;2022-08-19T00:21:25;23.50;99.90
10468;DHT22;5281;48.878;9.394;2022-08-19T00:23:53;23.40;99.90
10468;DHT22;5281;48.878;9.394;2022-08-19T00:26:21;23.40;99.90
10468;DHT22;5281;48.878;9.394;2022-08-19T00:28:48;23.30;99.90
10468;DHT22;5281;48.878;9.394;2022-08-19T00:31:14;23.30;99.90
10468;DHT22;5281;48.878;9.394;2022-08-19T00:33:42;23.30;99.90
10468;DHT22;5281;48.878;9.394;2022-08-19T00:36:10;23.30;99.90
10468;DHT22;5281;48.878;9.394;2022-08-19T00:38:38;23.30;99.90
10468;DHT22;5281;48.878;9.394;2022-08-19T00:41:07;23.30;99.90
10468;DHT22;5281;48.878;9.394;2022-08-19T00:43:35;23.20;99.90
10468;DHT22;5281;48.878;9.394;2022-08-19T00:46:02;23.30;99.90
10468;DHT22;5281;48.878;9.394;2022-08-19T00:48:30;23.20;99.90
10468;DHT22;5281;48.878;9.394;2022-08-19T00:50:58;23.20;99.90
10468;DHT22;5281;48.878;9.394;2022-08-19T00:53:28;23.20;99.90
10468;DHT22;5281;48.878;9.394;2022-08-19T00:55:58;23.10;99.90
10468;DHT22;5281;48.878;9.394;2022-08-19T00:58:28;23.20;99.90
10468;DHT22;5281;48.878;9.394;2022-08-19T01:00:56;23.20;99.90
10468;DHT22;5281;48.878;9.394;2022-08-19T01:03:23;23.20;99.90
10468;DHT22;5281;48.878;9.394;2022-08-19T01:05:52;23.20;99.90
10468;DHT22;5281;48.878;9.394;2022-08-19T01:08:21;23.20;99.90
10468;DHT22;5281;48.878;9.394;2022-08-19T01:10:50;23.20;99.90
10468;DHT22;5281;48.878;9.394;2022-08-19T01:13:21;23.20;99.90
10468;DHT22;5281;48.878;9.394;2022-08-19T01:15:55;23.20;99.90
10468;DHT22;5281;48.878;9.394;2022-08-19T01:18:25;23.20;99.90
10468;DHT22;5281;48.878;9.394;2022-08-19T01:20:54;23.20;99.90
10468;DHT22;5281;48.878;9.394;2022-08-19T01:23:24;23.20;99.90
10468;DHT22;5281;48.878;9.394;2022-08-19T01:26:09;23.20;99.90
10468;DHT22;5281;48.878;9.394;2022-08-19T01:28:36;23.10;99.90
10468;DHT22;5281;48.878;9.394;2022-08-19T01:31:04;23.10;99.90
10468;DHT22;5281;48.878;9.394;2022-08-19T01:33:31;23.10;99.90
10468;DHT22;5281;48.878;9.394;2022-08-19T01:36:05;23.10;99.90
10468;DHT22;5281;48.878;9.394;2022-08-19T01:38:36;23.10;99.90
10468;DHT22;5281;48.878;9.394;2022-08-19T01:41:03;23.10;99.90
10468;DHT22;5281;48.878;9.394;2022-08-19T01:43:30;23.10;99.90
10468;DHT22;5281;48.878;9.394;2022-08-19T01:45:56;23.10;99.90
10468;DHT22;5281;48.878;9.394;2022-08-19T01:48:23;23.10;99.90
10468;DHT22;5281;48.878;9.394;2022-08-19T01:50:50;23.00;99.90
10468;DHT22;5281;48.878;9.394;2022-08-19T01:53:16;23.00;99.90
10468;DHT22;5281;48.878;9.394;2022-08-19T01:55:44;23.00;99.90
10468;DHT22;5281;48.878;9.394;2022-08-19T01:58:15;23.00;99.90
10468;DHT22;5281;48.878;9.394;2022-08-19T02:00:44;23.00;99.90
10468;DHT22;5281;48.878;9.394;2022-08-19T02:03:12;23.00;99.90
10468;DHT22;5281;48.878;9.394;2022-08-19T02:05:41;22.90;99.90
10468;DHT22;5281;48.878;9.394;2022-08-19T02:08:08;22.90;99.90
10468;DHT22;5281;48.878;9.394;2022-08-19T02:10:39;22.90;99.90
10468;DHT22;5281;48.878;9.394;2022-08-19T02:13:08;22.80;99.90
10468;DHT22;5281;48.878;9.394;2022-08-19T02:15:34;22.80;99.90
10468;DHT22;5281;48.878;9.394;2022-08-19T02:18:01;22.80;99.90
10468;DHT22;5281;48.878;9.394;2022-08-19T02:20:28;22.80;99.90
10468;DHT22;5281;48.878;9.394;2022-08-19T02:22:55;22.80;99.90
10468;DHT22;5281;48.878;9.394;2022-08-19T02:25:21;22.70;99.90
10468;DHT22;5281;48.878;9.394;2022-08-19T02:27:48;22.80;99.90
10468;DHT22;5281;48.878;9.394;2022-08-19T02:30:17;22.70;99.90
10468;DHT22;5281;48.878;9.394;2022-08-19T02:32:44;22.70;99.90
10468;DHT22;5281;48.878;9.394;2022-08-19T02:35:11;22.70;99.90
10468;DHT22;5281;48.878;9.394;2022-08-19T02:37:38;22.70;99.90
10468;DHT22;5281;48.878;9.394;2022-08-19T02:40:22;22.70;99.90
10468;DHT22;5281;48.878;9.394;2022-08-19T02:42:49;22.70;99.90
10468;DHT22;5281;48.878;9.394;2022-08-19T02:45:17;22.70;99.90
10468;DHT22;5281;48.878;9.394;2022-08-19T02:47:44;22.70;99.90
10468;DHT22;5281;48.878;9.394;2022-08-19T02:50:11;22.70;99.90
10468;DHT22;5281;48.878;9.394;2022-08-19T02:52:38;22.70;99.90
10468;DHT22;5281;48.878;9.394;2022-08-19T02:55:06;22.60;99.90
10468;DHT22;5281;48.878;9.394;2022-08-19T02:57:32;22.70;99.90
10468;DHT22;5281;48.878;9.394;2022-08-19T03:00:00;22.60;99.90
10468;DHT22;5281;48.878;9.394;2022-08-19T03:02:28;22.60;99.90
10468;DHT22;5281;48.878;9.394;2022-08-19T03:04:56;22.60;99.90
10468;DHT22;5281;48.878;9.394;2022-08-19T03:07:22;22.60;99.90
10468;DHT22;5281;48.878;9.394;2022-08-19T03:09:49;22.50;99.90
10468;DHT22;5281;48.878;9.394;2022-08-19T03:12:16;22.50;99.90
10468;DHT22;5281;48.878;9.394;2022-08-19T03:14:42;22.50;99.90
10468;DHT22;5281;48.878;9.394;2022-08-19T03:17:09;22.50;99.90
10468;DHT22;5281;48.878;9.394;2022-08-19T03:19:37;22.50;99.90
10468;DHT22;5281;48.878;9.394;2022-08-19T03:22:04;22.50;99.90
10468;DHT22;5281;48.878;9.394;2022-08-19T03:24:31;22.40;99.90
10468;DHT22;5281;48.878;9.394;2022-08-19T03:26:58;22.40;99.90
10468;DHT22;5281;48.878;9.394;2022-08-19T03:29:26;22.40;99.90
10468;DHT22;5281;48.878;9.394;2022-08-19T03:31:53;22.30;99.90
10468;DHT22;5281;48.878;9.394;2022-08-19T03:34:23;22.30;99.90
10468;DHT22;5281;48.878;9.394;2022-08-19T03:36:54;22.30;99.90
10468;DHT22;5281;48.878;9.394;2022-08-19T03:39:21;22.20;99.90
10468;DHT22;5281;48.878;9.394;2022-08-19T03:41:49;22.20;99.90
10468;DHT22;5281;48.878;9.394;2022-08-19T03:44:17;22.20;99.90
10468;DHT22;5281;48.878;9.394;2022-08-19T03:46:45;22.20;99.90
10468;DHT22;5281;48.878;9.394;2022-08-19T03:49:12;22.10;99.90
10468;DHT22;5281;48.878;9.394;2022-08-19T03:51:39;22.10;99.90
10468;DHT22;5281;48.878;9.394;2022-08-19T03:54:09;22.10;99.90
10468;DHT22;5281;48.878;9.394;2022-08-19T03:56:37;22.10;99.90
10468;DHT22;5281;48.878;9.394;2022-08-19T03:59:06;22.10;99.90
10468;DHT22;5281;48.878;9.394;2022-08-19T04:01:34;22.00;99.90
10468;DHT22;5281;48.878;9.394;2022-08-19T04:04:02;22.00;99.90
10468;DHT22;5281;48.878;9.394;2022-08-19T04:06:31;22.00;99.90
10468;DHT22;5281;48.878;9.394;2022-08-19T04:09:00;22.00;99.90
10468;DHT22;5281;48.878;9.394;2022-08-19T04:11:31;22.00;99.90
10468;DHT22;5281;48.878;9.394;2022-08-19T04:13:59;22.10;99.90
10468;DHT22;5281;48.878;9.394;2022-08-19T04:16:27;22.00;99.90
10468;DHT22;5281;48.878;9.394;2022-08-19T04:18:55;22.00;99.90
10468;DHT22;5281;48.878;9.394;2022-08-19T04:21:24;22.10;99.90
10468;DHT22;5281;48.878;9.394;2022-08-19T04:23:51;22.10;99.90
10468;DHT22;5281;48.878;9.394;2022-08-19T04:26:21;22.10;99.90
10468;DHT22;5281;48.878;9.394;2022-08-19T04:28:50;22.10;99.90
10468;DHT22;5281;48.878;9.394;2022-08-19T04:31:19;22.10;99.90
10468;DHT22;5281;48.878;9.394;2022-08-19T04:33:46;22.10;99.90
10468;DHT22;5281;48.878;9.394;2022-08-19T04:36:16;22.00;99.90
10468;DHT22;5281;48.878;9.394;2022-08-19T04:38:46;22.10;99.90
10468;DHT22;5281;48.878;9.394;2022-08-19T04:41:13;22.00;99.90
10468;DHT22;5281;48.878;9.394;2022-08-19T04:43:59;22.00;99.90
10468;DHT22;5281;48.878;9.394;2022-08-19T04:46:26;22.10;99.90
10468;DHT22;5281;48.878;9.394;2022-08-19T04:48:54;22.10;99.90
10468;DHT22;5281;48.878;9.394;2022-08-19T04:51:23;22.10;99.90
10468;DHT22;5281;48.878;9.394;2022-08-19T04:53:50;22.10;99.90
10468;DHT22;5281;48.878;9.394;2022-08-19T04:56:18;22.10;99.90
10468;DHT22;5281;48.878;9.394;2022-08-19T04:58:48;22.10;99.90
10468;DHT22;5281;48.878;9.394;2022-08-19T05:01:21;22.10;99.90
10468;DHT22;5281;48.878;9.394;2022-08-19T05:03:48;22.10;99.90
10468;DHT22;5281;48.878;9.394;2022-08-19T05:06:17;22.10;99.90
10468;DHT22;5281;48.878;9.394;2022-08-19T05:08:45;22.10;99.90
10468;DHT22;5281;48.878;9.394;2022-08-19T05:11:16;22.10;99.90
10468;DHT22;5281;48.878;9.394;2022-08-19T05:13:44;22.10;99.90
10468;DHT22;5281;48.878;9.394;2022-08-19T05:16:12;22.10;99.90
10468;DHT22;5281;48.878;9.394;2022-08-19T05:18:42;22.10;99.90
10468;DHT22;5281;48.878;9.394;2022-08-19T05:21:27;22.20;99.90
10468;DHT22;5281;48.878;9.394;2022-08-19T05:24:13;22.20;99.90
10468;DHT22;5281;48.878;9.394;2022-08-19T05:26:42;22.30;99.90
10468;DHT22;5281;48.878;9.394;2022-08-19T05:29:12;22.30;99.90
10468;DHT22;5281;48.878;9.394;2022-08-19T05:31:39;22.30;99.90
10468;DHT22;5281;48.878;9.394;2022-08-19T05:34:08;22.30;99.90
10468;DHT22;5281;48.878;9.394;2022-08-19T05:36:36;22.30;99.90
10468;DHT22;5281;48.878;9.394;2022-08-19T05:39:05;22.30;99.90
10468;DHT22;5281;48.878;9.394;2022-08-19T05:41:32;22.30;99.90
10468;DHT22;5281;48.878;9.394;2022-08-19T05:44:03;22.40;99.90
10468;DHT22;5281;48.878;9.394;2022-08-19T05:46:32;22.40;99.90
10468;DHT22;5281;48.878;9.394;2022-08-19T05:48:59;22.30;99.90
10468;DHT22;5281;48.878;9.394;2022-08-19T05:51:27;22.30;99.90
10468;DHT22;5281;48.878;9.394;2022-08-19T05:53:54;22.40;99.90
10468;DHT22;5281;48.878;9.394;2022-08-19T05:56:20;22.40;99.90
10468;DHT22;5281;48.878;9.394;2022-08-19T05:58:47;22.40;99.90
10468;DHT22;5281;48.878;9.394;2022-08-19T06:01:17;22.40;99.90
10468;DHT22;5281;48.878;9.394;2022-08-19T06:03:45;22.50;99.90
10468;DHT22;5281;48.878;9.394;2022-08-19T06:06:15;22.60;99.90
10468;DHT22;5281;48.878;9.394;2022-08-19T06:08:44;22.60;99.90
10468;DHT22;5281;48.878;9.394;2022-08-19T06:11:19;22.70;99.90
10468;DHT22;5281;48.878;9.394;2022-08-19T06:13:47;22.70;99.90
10468;DHT22;5281;48.878;9.394;2022-08-19T06:16:16;22.70;99.90
10468;DHT22;5281;48.878;9.394;2022-08-19T06:18:46;22.60;99.90
10468;DHT22;5281;48.878;9.394;2022-08-19T06:21:12;22.50;99.90
10468;DHT22;5281;48.878;9.394;2022-08-19T06:23:39;22.60;99.90
10468;DHT22;5281;48.878;9.394;2022-08-19T06:26:11;22.70;99.90
10468;DHT22;5281;48.878;9.394;2022-08-19T06:28:38;22.80;99.90
10468;DHT22;5281;48.878;9.394;2022-08-19T06:31:08;22.90;99.90
10468;DHT22;5281;48.878;9.394;2022-08-19T06:33:35;22.90;99.90
10468;DHT22;5281;48.878;9.394;2022-08-19T06:36:03;23.00;99.90
10468;DHT22;5281;48.878;9.394;2022-08-19T06:38:30;22.90;99.90
10468;DHT22;5281;48.878;9.394;2022-08-19T06:41:01;22.90;99.90
10468;DHT22;5281;48.878;9.394;2022-08-19T06:43:29;22.90;99.90
10468;DHT22;5281;48.878;9.394;2022-08-19T06:45:56;22.90;99.90
10468;DHT22;5281;48.878;9.394;2022-08-19T06:48:24;23.00;99.90
10468;DHT22;5281;48.878;9.394;2022-08-19T06:50:51;23.10;99.90
10468;DHT22;5281;48.878;9.394;2022-08-19T06:53:17;23.30;99.90
10468;DHT22;5281;48.878;9.394;2022-08-19T06:55:45;23.50;99.90
10468;DHT22;5281;48.878;9.394;2022-08-19T06:58:12;23.60;99.90
10468;DHT22;5281;48.878;9.394;2022-08-19T07:00:40;23.80;99.90
10468;DHT22;5281;48.878;9.394;2022-08-19T07:03:07;23.90;99.90
10468;DHT22;5281;48.878;9.394;2022-08-19T07:05:39;23.90;99.90
10468;DHT22;5281;48.878;9.394;2022-08-19T07:08:06;24.10;99.90
10468;DHT22;5281;48.878;9.394;2022-08-19T07:10:33;24.30;99.90
10468;DHT22;5281;48.878;9.394;2022-08-19T07:13:00;24.40;99.90
10468;DHT22;5281;48.878;9.394;2022-08-19T07:15:27;24.50;99.90
10468;DHT22;5281;48.878;9.394;2022-08-19T07:17:55;24.50;99.90
10468;DHT22;5281;48.878;9.394;2022-08-19T07:20:22;24.60;99.90
10468;DHT22;5281;48.878;9.394;2022-08-19T07:22:49;24.60;99.90
10468;DHT22;5281;48.878;9.394;2022-08-19T07:25:16;24.70;99.90
10468;DHT22;5281;48.878;9.394;2022-08-19T07:27:44;24.80;99.90
10468;DHT22;5281;48.878;9.394;2022-08-19T07:30:11;24.80;99.90
10468;DHT22;5281;48.878;9.394;2022-08-19T07:32:38;24.80;99.90
10468;DHT22;5281;48.878;9.394;2022-08-19T07:35:08;24.60;99.90
10468;DHT22;5281;48.878;9.394;2022-08-19T07:37:35;24.70;99.90
10468;DHT22;5281;48.878;9.394;2022-08-19T07:40:04;24.60;99.90
10468;DHT22;5281;48.878;9.394;2022-08-19T07:42:30;24.50;99.90
10468;DHT22;5281;48.878;9.394;2022-08-19T07:44:58;24.40;99.90
10468;DHT22;5281;48.878;9.394;2022-08-19T07:47:25;24.30;99.90
10468;DHT22;5281;48.878;9.394;2022-08-19T07:49:53;24.20;99.90
10468;DHT22;5281;48.878;9.394;2022-08-19T07:52:22;23.90;99.90
10468;DHT22;5281;48.878;9.394;2022-08-19T07:54:48;23.70;99.90
10468;DHT22;5281;48.878;9.394;2022-08-19T07:57:17;23.60;99.90
10468;DHT22;5281;48.878;9.394;2022-08-19T07:59:44;23.70;99.90
10468;DHT22;5281;48.878;9.394;2022-08-19T08:02:11;23.60;99.90
10468;DHT22;5281;48.878;9.394;2022-08-19T08:04:38;23.50;99.90
10468;DHT22;5281;48.878;9.394;2022-08-19T08:07:24;23.40;99.90
10468;DHT22;5281;48.878;9.394;2022-08-19T08:10:08;23.50;99.90
10468;DHT22;5281;48.878;9.394;2022-08-19T08:12:38;23.60;99.90
10468;DHT22;5281;48.878;9.394;2022-08-19T08:15:09;23.70;99.90
10468;DHT22;5281;48.878;9.394;2022-08-19T08:17:37;23.70;99.90
10468;DHT22;5281;48.878;9.394;2022-08-19T08:20:06;23.60;99.90
10468;DHT22;5281;48.878;9.394;2022-08-19T08:22:34;23.60;99.90
10468;DHT22;5281;48.878;9.394;2022-08-19T08:25:21;23.50;99.90
10468;DHT22;5281;48.878;9.394;2022-08-19T08:27:49;23.40;99.90
10468;DHT22;5281;48.878;9.394;2022-08-19T08:30:20;23.20;99.90
10468;DHT22;5281;48.878;9.394;2022-08-19T08:32:48;23.10;99.90
10468;DHT22;5281;48.878;9.394;2022-08-19T08:35:16;23.00;99.90
10468;DHT22;5281;48.878;9.394;2022-08-19T08:37:46;22.90;99.90
10468;DHT22;5281;48.878;9.394;2022-08-19T08:40:20;22.80;99.90
10468;DHT22;5281;48.878;9.394;2022-08-19T08:42:53;22.80;99.90
10468;DHT22;5281;48.878;9.394;2022-08-19T08:45:24;22.90;99.90
10468;DHT22;5281;48.878;9.394;2022-08-19T08:47:52;22.90;99.90
10468;DHT22;5281;48.878;9.394;2022-08-19T08:50:28;23.10;99.90
10468;DHT22;5281;48.878;9.394;2022-08-19T08:52:58;23.20;99.90
10468;DHT22;5281;48.878;9.394;2022-08-19T08:55:26;23.20;99.90
10468;DHT22;5281;48.878;9.394;2022-08-19T08:57:59;23.20;99.90
10468;DHT22;5281;48.878;9.394;2022-08-19T09:00:29;23.20;99.90
10468;DHT22;5281;48.878;9.394;2022-08-19T09:02:57;23.20;99.90
10468;DHT22;5281;48.878;9.394;2022-08-19T09:05:30;23.30;99.90
10468;DHT22;5281;48.878;9.394;2022-08-19T09:08:03;23.30;99.90
10468;DHT22;5281;48.878;9.394;2022-08-19T09:10:36;23.40;99.90
10468;DHT22;5281;48.878;9.394;2022-08-19T09:13:09;23.50;99.90
10468;DHT22;5281;48.878;9.394;2022-08-19T09:15:42;23.60;99.90
10468;DHT22;5281;48.878;9.394;2022-08-19T09:18:10;23.60;99.90
10468;DHT22;5281;48.878;9.394;2022-08-19T09:20:36;23.60;99.90
10468;DHT22;5281;48.878;9.394;2022-08-19T09:23:05;23.70;99.90
10468;DHT22;5281;48.878;9.394;2022-08-19T09:25:31;23.60;99.90
10468;DHT22;5281;48.878;9.394;2022-08-19T09:28:00;23.40;99.90
10468;DHT22;5281;48.878;9.394;2022-08-19T09:30:31;23.40;99.90
10468;DHT22;5281;48.878;9.394;2022-08-19T09:32:58;23.40;99.90
10468;DHT22;5281;48.878;9.394;2022-08-19T09:35:27;23.60;99.90
10468;DHT22;5281;48.878;9.394;2022-08-19T09:37:55;23.80;99.90
10468;DHT22;5281;48.878;9.394;2022-08-19T09:40:24;23.90;99.90
10468;DHT22;5281;48.878;9.394;2022-08-19T09:42:51;24.00;99.90
10468;DHT22;5281;48.878;9.394;2022-08-19T09:45:20;24.10;99.90
10468;DHT22;5281;48.878;9.394;2022-08-19T09:47:48;24.20;99.90
10468;DHT22;5281;48.878;9.394;2022-08-19T09:50:16;24.30;99.90
10468;DHT22;5281;48.878;9.394;2022-08-19T09:52:44;24.30;99.90
10468;DHT22;5281;48.878;9.394;2022-08-19T09:55:11;24.40;99.90
10468;DHT22;5281;48.878;9.394;2022-08-19T09:57:39;24.40;99.90
10468;DHT22;5281;48.878;9.394;2022-08-19T10:00:09;24.40;99.90
10468;DHT22;5281;48.878;9.394;2022-08-19T10:02:36;24.40;99.90
10468;DHT22;5281;48.878;9.394;2022-08-19T10:05:04;24.40;99.90
10468;DHT22;5281;48.878;9.394;2022-08-19T10:07:48;24.40;99.90
10468;DHT22;5281;48.878;9.394;2022-08-19T10:10:16;24.40;99.90
10468;DHT22;5281;48.878;9.394;2022-08-19T10:12:44;24.40;99.90
10468;DHT22;5281;48.878;9.394;2022-08-19T10:15:13;24.40;99.90
10468;DHT22;5281;48.878;9.394;2022-08-19T10:17:40;24.50;99.90
10468;DHT22;5281;48.878;9.394;2022-08-19T10:20:07;24.50;99.90
10468;DHT22;5281;48.878;9.394;2022-08-19T10:22:34;24.50;99.90
10468;DHT22;5281;48.878;9.394;2022-08-19T10:25:04;24.60;99.90
10468;DHT22;5281;48.878;9.394;2022-08-19T10:27:31;24.70;99.90
10468;DHT22;5281;48.878;9.394;2022-08-19T10:29:59;24.70;99.90
10468;DHT22;5281;48.878;9.394;2022-08-19T10:32:26;24.80;99.90
10468;DHT22;5281;48.878;9.394;2022-08-19T10:34:54;24.80;99.90
10468;DHT22;5281;48.878;9.394;2022-08-19T10:37:21;24.90;99.90
10468;DHT22;5281;48.878;9.394;2022-08-19T10:39:48;25.10;99.90
10468;DHT22;5281;48.878;9.394;2022-08-19T10:42:15;25.30;99.90
10468;DHT22;5281;48.878;9.394;2022-08-19T10:44:44;25.50;99.90
10468;DHT22;5281;48.878;9.394;2022-08-19T10:47:13;25.60;99.90
10468;DHT22;5281;48.878;9.394;2022-08-19T10:49:40;25.60;99.90
10468;DHT22;5281;48.878;9.394;2022-08-19T10:52:21;25.60;99.90
10468;DHT22;5281;48.878;9.394;2022-08-19T10:54:59;25.60;99.90
10468;DHT22;5281;48.878;9.394;2022-08-19T10:57:44;25.50;99.90
10468;DHT22;5281;48.878;9.394;2022-08-19T11:00:11;25.60;99.90
10468;DHT22;5281;48.878;9.394;2022-08-19T11:02:40;25.70;99.90
10468;DHT22;5281;48.878;9.394;2022-08-19T11:05:09;25.60;99.90
10468;DHT22;5281;48.878;9.394;2022-08-19T11:07:37;25.50;99.90
10468;DHT22;5281;48.878;9.394;2022-08-19T11:10:05;25.40;99.90
10468;DHT22;5281;48.878;9.394;2022-08-19T11:12:32;25.30;99.90
10468;DHT22;5281;48.878;9.394;2022-08-19T11:14:59;25.20;99.90
10468;DHT22;5281;48.878;9.394;2022-08-19T11:17:26;25.20;99.90
10468;DHT22;5281;48.878;9.394;2022-08-19T11:19:54;25.30;99.90
10468;DHT22;5281;48.878;9.394;2022-08-19T11:22:21;25.20;99.90
10468;DHT22;5281;48.878;9.394;2022-08-19T11:24:47;25.10;99.90
10468;DHT22;5281;48.878;9.394;2022-08-19T11:27:14;25.00;99.90
10468;DHT22;5281;48.878;9.394;2022-08-19T11:29:41;25.00;99.90
10468;DHT22;5281;48.878;9.394;2022-08-19T11:32:09;25.00;99.90
10468;DHT22;5281;48.878;9.394;2022-08-19T11:34:38;25.00;99.90
10468;DHT22;5281;48.878;9.394;2022-08-19T11:37:06;25.10;99.90
10468;DHT22;5281;48.878;9.394;2022-08-19T11:39:35;25.10;99.90
10468;DHT22;5281;48.878;9.394;2022-08-19T11:42:03;25.00;99.90
10468;DHT22;5281;48.878;9.394;2022-08-19T11:44:51;24.90;99.90
10468;DHT22;5281;48.878;9.394;2022-08-19T11:47:19;24.90;99.90
10468;DHT22;5281;48.878;9.394;2022-08-19T11:49:45;24.90;99.90
10468;DHT22;5281;48.878;9.394;2022-08-19T11:52:13;24.80;99.90
10468;DHT22;5281;48.878;9.394;2022-08-19T11:54:40;24.80;99.90
10468;DHT22;5281;48.878;9.394;2022-08-19T11:57:07;24.80;99.90
10468;DHT22;5281;48.878;9.394;2022-08-19T11:59:34;24.70;99.90
10468;DHT22;5281;48.878;9.394;2022-08-19T12:02:00;24.70;99.90
10468;DHT22;5281;48.878;9.394;2022-08-19T12:04:27;24.70;99.90
10468;DHT22;5281;48.878;9.394;2022-08-19T12:06:54;24.70;99.90
10468;DHT22;5281;48.878;9.394;2022-08-19T12:09:22;24.80;99.90
10468;DHT22;5281;48.878;9.394;2022-08-19T12:11:48;24.80;99.90
10468;DHT22;5281;48.878;9.394;2022-08-19T12:14:16;24.90;99.90
10468;DHT22;5281;48.878;9.394;2022-08-19T12:16:44;25.00;99.90
10468;DHT22;5281;48.878;9.394;2022-08-19T12:19:12;25.00;99.90
10468;DHT22;5281;48.878;9.394;2022-08-19T12:21:39;25.20;99.90
10468;DHT22;5281;48.878;9.394;2022-08-19T12:24:06;25.30;99.90
10468;DHT22;5281;48.878;9.394;2022-08-19T12:26:35;25.40;99.90
10468;DHT22;5281;48.878;9.394;2022-08-19T12:29:02;25.50;99.90
10468;DHT22;5281;48.878;9.394;2022-08-19T12:31:29;25.50;99.90
10468;DHT22;5281;48.878;9.394;2022-08-19T12:33:56;25.50;99.90
10468;DHT22;5281;48.878;9.394;2022-08-19T12:36:24;25.50;99.90
10468;DHT22;5281;48.878;9.394;2022-08-19T12:38:51;25.40;99.90
10468;DHT22;5281;48.878;9.394;2022-08-19T12:41:19;25.40;99.90
10468;DHT22;5281;48.878;9.394;2022-08-19T12:43:49;25.40;99.90
10468;DHT22;5281;48.878;9.394;2022-08-19T12:46:17;25.30;99.90
10468;DHT22;5281;48.878;9.394;2022-08-19T12:48:44;25.40;99.90
10468;DHT22;5281;48.878;9.394;2022-08-19T12:51:13;25.40;99.90
10468;DHT22;5281;48.878;9.394;2022-08-19T12:53:41;25.50;99.90
10468;DHT22;5281;48.878;9.394;2022-08-19T12:56:08;25.60;99.90
10468;DHT22;5281;48.878;9.394;2022-08-19T12:58:36;25.30;99.90
10468;DHT22;5281;48.878;9.394;2022-08-19T13:01:08;24.80;99.90
10468;DHT22;5281;48.878;9.394;2022-08-19T13:03:36;24.40;99.90
10468;DHT22;5281;48.878;9.394;2022-08-19T13:06:03;24.10;99.90
10468;DHT22;5281;48.878;9.394;2022-08-19T13:08:30;24.00;99.90
10468;DHT22;5281;48.878;9.394;2022-08-19T13:10:57;24.00;99.90
10468;DHT22;5281;48.878;9.394;2022-08-19T13:13:25;24.10;99.90
10468;DHT22;5281;48.878;9.394;2022-08-19T13:15:52;24.30;99.90
10468;DHT22;5281;48.878;9.394;2022-08-19T13:18:20;24.50;99.90
10468;DHT22;5281;48.878;9.394;2022-08-19T13:20:47;24.50;99.90
10468;DHT22;5281;48.878;9.394;2022-08-19T13:23:13;24.40;99.90
10468;DHT22;5281;48.878;9.394;2022-08-19T13:25:40;24.40;99.90
10468;DHT22;5281;48.878;9.394;2022-08-19T13:28:07;24.50;99.90
10468;DHT22;5281;48.878;9.394;2022-08-19T13:30:34;24.40;99.90
10468;DHT22;5281;48.878;9.394;2022-08-19T13:33:20;24.40;99.90
10468;DHT22;5281;48.878;9.394;2022-08-19T13:35:48;24.50;99.90
10468;DHT22;5281;48.878;9.394;2022-08-19T13:38:17;24.50;99.90
10468;DHT22;5281;48.878;9.394;2022-08-19T13:40:46;24.40;99.90
10468;DHT22;5281;48.878;9.394;2022-08-19T13:43:15;24.20;99.90
10468;DHT22;5281;48.878;9.394;2022-08-19T13:45:42;23.90;99.90
10468;DHT22;5281;48.878;9.394;2022-08-19T13:48:10;23.70;99.90
10468;DHT22;5281;48.878;9.394;2022-08-19T13:50:42;23.60;99.90
10468;DHT22;5281;48.878;9.394;2022-08-19T13:53:10;23.40;99.90
10468;DHT22;5281;48.878;9.394;2022-08-19T13:55:37;23.20;99.90
10468;DHT22;5281;48.878;9.394;2022-08-19T13:58:04;23.10;99.90
10468;DHT22;5281;48.878;9.394;2022-08-19T14:00:34;23.00;99.90
10468;DHT22;5281;48.878;9.394;2022-08-19T14:03:01;23.20;99.90
10468;DHT22;5281;48.878;9.394;2022-08-19T14:05:31;23.40;99.90
10468;DHT22;5281;48.878;9.394;2022-08-19T14:07:59;23.40;99.90
10468;DHT22;5281;48.878;9.394;2022-08-19T14:10:26;23.60;99.90
10468;DHT22;5281;48.878;9.394;2022-08-19T14:12:57;23.90;99.90
10468;DHT22;5281;48.878;9.394;2022-08-19T14:15:25;24.40;99.90
10468;DHT22;5281;48.878;9.394;2022-08-19T14:17:53;24.80;99.90
10468;DHT22;5281;48.878;9.394;2022-08-19T14:20:20;25.00;99.90
10468;DHT22;5281;48.878;9.394;2022-08-19T14:22:48;25.00;99.90
10468;DHT22;5281;48.878;9.394;2022-08-19T14:25:20;25.00;99.90
10468;DHT22;5281;48.878;9.394;2022-08-19T14:27:48;25.00;99.90
10468;DHT22;5281;48.878;9.394;2022-08-19T14:30:17;24.80;99.90
10468;DHT22;5281;48.878;9.394;2022-08-19T14:32:45;24.50;99.90
10468;DHT22;5281;48.878;9.394;2022-08-19T14:35:14;24.40;99.90
10468;DHT22;5281;48.878;9.394;2022-08-19T14:37:44;24.30;99.90
10468;DHT22;5281;48.878;9.394;2022-08-19T14:40:12;24.20;99.90
10468;DHT22;5281;48.878;9.394;2022-08-19T14:42:41;24.20;99.90
10468;DHT22;5281;48.878;9.394;2022-08-19T14:45:09;24.10;99.90
10468;DHT22;5281;48.878;9.394;2022-08-19T14:47:35;23.90;99.90
10468;DHT22;5281;48.878;9.394;2022-08-19T14:50:04;23.80;99.90
10468;DHT22;5281;48.878;9.394;2022-08-19T14:52:31;23.70;99.90
10468;DHT22;5281;48.878;9.394;2022-08-19T14:54:58;23.70;99.90
10468;DHT22;5281;48.878;9.394;2022-08-19T14:57:25;23.60;99.90
10468;DHT22;5281;48.878;9.394;2022-08-19T14:59:54;23.60;99.90
10468;DHT22;5281;48.878;9.394;2022-08-19T15:02:20;23.50;99.90
10468;DHT22;5281;48.878;9.394;2022-08-19T15:04:47;23.50;99.90
10468;DHT22;5281;48.878;9.394;2022-08-19T15:07:15;23.50;99.90
10468;DHT22;5281;48.878;9.394;2022-08-19T15:09:42;23.70;99.90
10468;DHT22;5281;48.878;9.394;2022-08-19T15:12:09;23.90;99.90
10468;DHT22;5281;48.878;9.394;2022-08-19T15:14:37;24.10;99.90
10468;DHT22;5281;48.878;9.394;2022-08-19T15:17:05;24.20;99.90
10468;DHT22;5281;48.878;9.394;2022-08-19T15:19:32;24.20;99.90
10468;DHT22;5281;48.878;9.394;2022-08-19T15:22:01;24.10;99.90
10468;DHT22;5281;48.878;9.394;2022-08-19T15:24:28;24.10;99.90
10468;DHT22;5281;48.878;9.394;2022-08-19T15:26:55;23.90;99.90
10468;DHT22;5281;48.878;9.394;2022-08-19T15:29:22;23.80;99.90
10468;DHT22;5281;48.878;9.394;2022-08-19T15:31:50;23.50;99.90
10468;DHT22;5281;48.878;9.394;2022-08-19T15:34:18;23.20;99.90
10468;DHT22;5281;48.878;9.394;2022-08-19T15:36:45;22.90;99.90
10468;DHT22;5281;48.878;9.394;2022-08-19T15:39:12;22.70;99.90
10468;DHT22;5281;48.878;9.394;2022-08-19T15:41:39;22.50;99.90
10468;DHT22;5281;48.878;9.394;2022-08-19T15:44:09;22.40;99.90
10468;DHT22;5281;48.878;9.394;2022-08-19T15:46:39;22.30;99.90
10468;DHT22;5281;48.878;9.394;2022-08-19T15:49:06;22.10;99.90
10468;DHT22;5281;48.878;9.394;2022-08-19T15:51:37;22.00;99.90
10468;DHT22;5281;48.878;9.394;2022-08-19T15:54:06;21.90;99.90